Terminal Aerodrome Forecast
Issued by NWS

Home | Current Version | Previous Version | Text Only | Print | Product List | Glossary On
Versions: 1 2 3 4 5 6 7 8 9 10 11 12 13 14 15 16 17 18
000
FTUS43 KDVN 061739
TAFBRL
TAF
KBRL 061739Z 0618/0718 19011KT P6SM BKN030
     FM062200 22012KT 3SM TSRA BR OVC025CB
     FM070300 27008KT 5SM BR VCTS OVC015CB
     FM070500 32010KT 5SM BR OVC010
     FM071400 01008KT P6SM BKN030=

USA.gov is the U.S. government's official web portal to all federal, state and local government web resources and services.